Time;durP1;ratioP1;P1;durP2;ratioP2;P2;SDS_P1;SDS_P2;PMS_P1;PMS_P2;Temp;Humidity;BMP_temperature;BMP_pressure;BME280_temperature;BME280_humidity;BME280_pressure;Samples;Min_cycle;Max_cycle;Signal;HPM_P1;HPM_P2
2023/05/09 00:02:10;;;;;;;7.38;4.63;;;21.60;91.90;;;;;;5156510;27;20046;-65
2023/05/09 00:04:37;;;;;;;5.80;4.60;;;21.70;91.90;;;;;;5134586;27;20132;-66
2023/05/09 00:07:02;;;;;;;7.30;4.70;;;21.90;91.90;;;;;;5145095;27;20066;-65
2023/05/09 00:09:28;;;;;;;6.95;4.82;;;21.60;91.80;;;;;;5152085;27;20127;-66
2023/05/09 00:11:54;;;;;;;5.78;4.18;;;21.70;92.00;;;;;;5154741;27;20038;-66
2023/05/09 00:14:19;;;;;;;7.55;4.70;;;21.70;91.80;;;;;;5155128;27;20130;-60
2023/05/09 00:16:45;;;;;;;7.13;4.18;;;21.70;92.00;;;;;;5136565;27;20043;-61
2023/05/09 00:19:11;;;;;;;6.78;4.97;;;21.60;91.80;;;;;;5155623;27;20042;-61
2023/05/09 00:21:37;;;;;;;7.53;4.65;;;21.60;91.80;;;;;;5156404;27;20472;-61
2023/05/09 00:24:12;;;;;;;7.25;4.75;;;21.50;91.80;;;;;;5156224;27;20051;-61
2023/05/09 00:26:47;;;;;;;6.28;4.57;;;;;;;;;;5106626;27;20046;-60
2023/05/09 00:29:13;;;;;;;7.50;5.13;;;21.70;91.80;;;;;;5154278;27;20039;-60
2023/05/09 00:31:39;;;;;;;7.30;5.00;;;21.60;91.70;;;;;;5154453;27;20043;-62
2023/05/09 00:34:05;;;;;;;6.22;4.22;;;21.50;91.70;;;;;;5154853;27;20046;-61
2023/05/09 00:36:31;;;;;;;6.82;5.03;;;21.60;91.70;;;;;;5156038;27;20047;-61
2023/05/09 00:38:57;;;;;;;8.10;4.97;;;;;;;;;;5134591;27;20079;-62
2023/05/09 00:41:23;;;;;;;10.18;4.65;;;21.50;91.70;;;;;;5156564;27;20039;-66
2023/05/09 00:43:49;;;;;;;6.82;4.82;;;21.60;91.70;;;;;;5155098;27;20114;-65
2023/05/09 00:46:14;;;;;;;6.60;4.70;;;21.50;91.70;;;;;;5154995;27;20369;-66
2023/05/09 00:48:40;;;;;;;6.22;4.55;;;21.50;91.70;;;;;;5135488;27;20043;-65
2023/05/09 00:51:06;;;;;;;6.63;4.40;;;21.40;91.70;;;;;;5107154;27;20541;-66
2023/05/09 00:53:31;;;;;;;6.40;4.68;;;21.40;91.70;;;;;;5131192;27;20043;-67
2023/05/09 00:55:57;;;;;;;6.78;4.35;;;21.70;91.00;;;;;;5135488;27;20138;-65
2023/05/09 00:58:23;;;;;;;6.00;4.65;;;21.50;91.70;;;;;;5117410;27;20046;-65
2023/05/09 01:00:49;;;;;;;5.75;4.05;;;21.60;91.70;;;;;;5118586;27;20030;-60
2023/05/09 01:03:15;;;;;;;7.15;4.75;;;21.40;91.70;;;;;;5155444;27;20049;-66
2023/05/09 01:05:50;;;;;;;6.65;4.70;;;21.70;90.60;;;;;;5153870;27;20068;-66
2023/05/09 01:08:27;;;;;;;6.85;4.28;;;21.60;91.70;;;;;;5134546;27;20127;-66
2023/05/09 01:11:11;;;;;;;7.22;4.55;;;21.70;90.10;;;;;;5137222;27;20084;-62
2023/05/09 01:13:43;;;;;;;6.57;4.60;;;21.50;91.60;;;;;;5129493;27;20175;-60
2023/05/09 01:16:22;;;;;;;6.10;4.10;;;21.50;91.60;;;;;;5120735;27;20499;-66
2023/05/09 01:19:02;;;;;;;6.18;4.28;;;21.60;88.90;;;;;;5131836;27;20054;-66
2023/05/09 01:21:29;;;;;;;5.85;4.10;;;21.40;91.60;;;;;;5132139;27;20129;-61
2023/05/09 01:24:26;;;;;;;7.05;4.72;;;21.50;91.60;;;;;;5136700;27;20411;-64
2023/05/09 01:27:05;;;;;;;7.18;4.68;;;21.30;91.50;;;;;;5113833;27;20094;-66
2023/05/09 01:29:31;;;;;;;6.32;4.47;;;21.40;91.50;;;;;;5135483;27;20043;-66
2023/05/09 01:31:57;;;;;;;7.85;4.70;;;21.50;91.50;;;;;;5152121;27;20031;-66
2023/05/09 01:34:25;;;;;;;6.30;4.45;;;21.60;91.60;;;;;;5131627;27;20392;-66
2023/05/09 01:36:51;;;;;;;6.43;4.40;;;21.60;91.50;;;;;;5133909;27;20038;-66
2023/05/09 01:39:17;;;;;;;6.57;4.68;;;21.30;89.90;;;;;;5133627;27;20100;-66
2023/05/09 01:41:42;;;;;;;7.72;4.63;;;21.60;91.50;;;;;;5131710;27;20038;-66
2023/05/09 01:44:09;;;;;;;6.38;4.60;;;21.60;91.50;;;;;;5155255;27;20047;-66
2023/05/09 01:46:36;;;;;;;6.07;4.50;;;;;;;;;;5118258;27;20038;-66
2023/05/09 01:49:01;;;;;;;7.38;4.82;;;21.60;90.00;;;;;;5134709;27;20062;-65
2023/05/09 01:51:28;;;;;;;5.97;4.13;;;21.40;91.40;;;;;;5153680;27;20047;-67
2023/05/09 01:53:54;;;;;;;6.85;4.53;;;;;;;;;;5132902;27;20049;-64
2023/05/09 01:56:20;;;;;;;6.25;4.22;;;;;;;;;;5151229;27;20047;-66
2023/05/09 01:58:49;;;;;;;6.65;4.03;;;;;;;;;;5119680;27;20052;-61
2023/05/09 02:01:15;;;;;;;5.35;3.78;;;;;;;;;;5134714;27;20042;-66
2023/05/09 02:03:41;;;;;;;6.15;4.25;;;21.40;91.40;;;;;;5154102;27;20205;-66
2023/05/09 02:06:07;;;;;;;5.82;3.83;;;21.60;91.50;;;;;;5133555;27;20126;-65
2023/05/09 02:08:32;;;;;;;4.97;3.58;;;21.40;91.40;;;;;;5133013;27;20035;-66
2023/05/09 02:10:58;;;;;;;6.05;3.90;;;;;;;;;;5132532;27;20042;-65
2023/05/09 02:13:24;;;;;;;6.30;4.40;;;21.60;91.50;;;;;;5149332;27;20067;-66
2023/05/09 02:15:50;;;;;;;5.32;3.80;;;21.40;91.40;;;;;;5134722;27;20042;-66
2023/05/09 02:18:16;;;;;;;5.60;4.18;;;21.50;90.20;;;;;;5139448;27;20511;-66
2023/05/09 02:20:41;;;;;;;7.10;4.40;;;21.40;91.40;;;;;;5153276;27;20476;-66
2023/05/09 02:23:08;;;;;;;5.65;4.10;;;21.30;91.30;;;;;;5150977;27;20038;-66
2023/05/09 02:25:33;;;;;;;5.82;4.15;;;21.40;91.40;;;;;;5150716;27;20038;-66
2023/05/09 02:27:59;;;;;;;5.43;3.97;;;21.40;91.30;;;;;;5135722;27;20502;-66
2023/05/09 02:30:25;;;;;;;5.63;4.30;;;21.30;91.30;;;;;;5133842;27;20051;-66
2023/05/09 02:32:55;;;;;;;6.10;4.07;;;21.40;89.70;;;;;;5151509;27;20074;-66
2023/05/09 02:35:21;;;;;;;8.80;4.10;;;21.30;91.30;;;;;;5154662;27;20047;-66
2023/05/09 02:37:48;;;;;;;6.22;4.10;;;;;;;;;;5149240;27;20030;-66
2023/05/09 02:40:13;;;;;;;6.53;4.18;;;21.20;91.20;;;;;;5132417;27;20038;-66
2023/05/09 02:42:39;;;;;;;5.95;4.15;;;21.40;91.30;;;;;;5133750;27;20053;-66
2023/05/09 02:45:06;;;;;;;5.80;4.15;;;21.50;91.30;;;;;;5153995;27;20050;-66
2023/05/09 02:47:32;;;;;;;7.57;4.00;;;21.40;91.30;;;;;;5152256;27;20552;-66
2023/05/09 02:49:58;;;;;;;5.88;3.97;;;21.20;91.20;;;;;;5132082;27;20258;-66
2023/05/09 02:52:23;;;;;;;5.57;3.80;;;21.20;91.20;;;;;;5148126;27;20035;-66
2023/05/09 02:54:49;;;;;;;6.30;4.15;;;21.10;91.20;;;;;;5144197;27;20532;-65
2023/05/09 02:57:15;;;;;;;5.43;4.05;;;21.50;91.30;;;;;;5153133;27;20043;-66
2023/05/09 02:59:41;;;;;;;6.72;4.93;;;21.40;91.20;;;;;;5150317;27;20057;-65
2023/05/09 03:02:07;;;;;;;7.28;4.78;;;21.50;91.20;;;;;;5150907;27;20059;-66
2023/05/09 03:04:33;;;;;;;6.03;4.50;;;;;;;;;;5149285;27;20498;-66
2023/05/09 03:06:59;;;;;;;6.38;4.43;;;21.40;91.30;;;;;;5153054;27;20395;-66
2023/05/09 03:09:25;;;;;;;7.97;4.57;;;21.30;91.20;;;;;;5148492;27;20038;-61
2023/05/09 03:11:50;;;;;;;7.70;4.78;;;21.50;91.30;;;;;;5153052;27;20050;-66
2023/05/09 03:14:17;;;;;;;8.45;5.10;;;21.50;91.30;;;;;;5149677;27;20039;-67
2023/05/09 03:16:43;;;;;;;6.43;4.95;;;;;;;;;;5152739;27;20104;-67
2023/05/09 03:19:09;;;;;;;6.55;4.50;;;21.40;89.60;;;;;;5150869;27;20050;-66
2023/05/09 03:21:35;;;;;;;7.65;4.47;;;21.20;90.20;;;;;;5151621;27;20046;-67
2023/05/09 03:24:01;;;;;;;6.32;4.40;;;21.20;91.20;;;;;;5150418;27;20039;-67
2023/05/09 03:26:26;;;;;;;7.43;4.63;;;21.40;91.30;;;;;;5153862;27;20480;-61
2023/05/09 03:28:52;;;;;;;6.25;4.32;;;21.10;91.20;;;;;;5153213;27;20113;-61
2023/05/09 03:31:18;;;;;;;6.07;4.30;;;21.40;91.30;;;;;;5152982;27;20437;-61
2023/05/09 03:33:44;;;;;;;5.93;4.10;;;21.30;90.00;;;;;;5150499;27;20039;-61
2023/05/09 03:36:09;;;;;;;6.45;4.53;;;21.20;89.80;;;;;;5150780;27;20088;-60
2023/05/09 03:38:35;;;;;;;6.28;4.38;;;21.40;91.20;;;;;;5134155;27;20049;-60
2023/05/09 03:41:01;;;;;;;6.43;4.70;;;21.30;91.20;;;;;;5154022;27;20079;-61
2023/05/09 03:43:26;;;;;;;6.88;4.35;;;21.20;91.10;;;;;;5148509;27;20056;-61
2023/05/09 03:45:52;;;;;;;5.47;3.97;;;21.10;91.10;;;;;;5149339;27;20047;-61
2023/05/09 03:48:18;;;;;;;6.00;3.92;;;21.00;91.10;;;;;;5152062;27;20083;-60
2023/05/09 03:50:44;;;;;;;6.30;4.47;;;21.10;91.10;;;;;;5153380;27;20115;-60
2023/05/09 03:53:10;;;;;;;6.32;4.35;;;;;;;;;;5152109;27;20034;-65
2023/05/09 03:55:36;;;;;;;6.22;4.35;;;21.40;91.20;;;;;;5148745;27;20047;-60
2023/05/09 03:58:02;;;;;;;6.88;4.72;;;21.30;91.20;;;;;;5152203;27;20484;-61
2023/05/09 04:00:28;;;;;;;7.82;4.70;;;21.30;91.20;;;;;;5152157;27;20046;-61
2023/05/09 04:02:54;;;;;;;7.38;4.78;;;21.40;91.20;;;;;;5151014;27;20047;-61
2023/05/09 04:05:19;;;;;;;7.35;5.10;;;21.20;91.10;;;;;;5116226;27;20086;-61
2023/05/09 04:07:45;;;;;;;6.45;4.53;;;21.30;91.00;;;;;;5115733;27;20459;-65
2023/05/09 04:10:11;;;;;;;6.43;4.93;;;21.20;91.20;;;;;;5153763;27;20102;-65
2023/05/09 04:12:37;;;;;;;10.35;5.05;;;21.10;91.00;;;;;;5154067;27;20039;-65
2023/05/09 04:15:03;;;;;;;7.00;4.85;;;21.30;88.40;;;;;;5155008;27;20042;-66
2023/05/09 04:17:28;;;;;;;7.43;4.93;;;21.30;91.20;;;;;;5155881;27;20073;-60
2023/05/09 04:19:55;;;;;;;7.90;5.00;;;21.20;91.10;;;;;;5150280;27;20217;-63
2023/05/09 04:22:21;;;;;;;10.65;5.25;;;;;;;;;;5154643;27;20425;-65
2023/05/09 04:24:46;;;;;;;7.05;5.00;;;21.20;91.20;;;;;;5155506;27;20053;-60
2023/05/09 04:27:13;;;;;;;7.10;5.13;;;;;;;;;;5155223;27;20046;-64
2023/05/09 04:29:39;;;;;;;7.15;5.20;;;;;;;;;;5133416;27;20038;-64
2023/05/09 04:32:06;;;;;;;6.90;4.80;;;;;;;;;;5123522;27;20081;-62
2023/05/09 04:34:32;;;;;;;6.18;4.65;;;21.30;91.10;;;;;;5152825;27;20039;-61
2023/05/09 04:36:58;;;;;;;6.90;5.28;;;21.10;91.10;;;;;;5154826;27;20039;-60
2023/05/09 04:39:24;;;;;;;7.65;4.63;;;21.40;91.20;;;;;;5153089;27;20498;-61
2023/05/09 04:41:51;;;;;;;7.93;5.97;;;;;;;;;;5154026;27;20080;-63
2023/05/09 04:44:17;;;;;;;6.75;4.90;;;21.30;91.00;;;;;;5154824;27;20047;-61
2023/05/09 04:46:43;;;;;;;6.80;5.05;;;21.30;91.10;;;;;;5155343;27;20043;-61
2023/05/09 04:49:09;;;;;;;7.30;5.00;;;;;;;;;;5153169;27;20051;-61
2023/05/09 04:51:38;;;;;;;6.53;5.07;;;21.40;91.10;;;;;;5140175;27;20043;-61
2023/05/09 04:54:04;;;;;;;7.70;6.18;;;21.30;91.10;;;;;;5153253;27;20069;-60
2023/05/09 04:56:29;;;;;;;8.93;6.07;;;21.20;91.00;;;;;;5150301;27;20035;-61
2023/05/09 04:58:55;;;;;;;7.75;5.43;;;21.40;91.10;;;;;;5153371;27;20043;-60
2023/05/09 05:01:21;;;;;;;7.82;5.90;;;21.40;91.20;;;;;;5152385;27;20110;-61
2023/05/09 05:03:47;;;;;;;8.63;5.95;;;;;;;;;;5152645;27;20042;-65
2023/05/09 05:06:13;;;;;;;8.55;5.97;;;;;;;;;;5153057;27;20053;-65
2023/05/09 05:08:39;;;;;;;7.72;5.75;;;21.50;91.10;;;;;;5149789;27;20041;-61
2023/05/09 05:11:05;;;;;;;7.45;5.68;;;21.30;91.00;;;;;;5154054;27;20039;-61
2023/05/09 05:13:31;;;;;;;7.93;6.13;;;21.10;91.00;;;;;;5154007;27;20388;-62
2023/05/09 05:15:57;;;;;;;8.98;6.88;;;21.30;91.00;;;;;;5155485;27;20050;-61
2023/05/09 05:18:23;;;;;;;8.65;6.40;;;21.30;90.40;;;;;;5151671;27;20535;-62
2023/05/09 05:20:49;;;;;;;8.85;6.00;;;21.20;91.00;;;;;;5150550;27;20123;-61
2023/05/09 05:23:14;;;;;;;20.77;7.22;;;21.40;91.10;;;;;;5150497;27;20498;-61
2023/05/09 05:25:40;;;;;;;18.63;6.10;;;21.50;90.80;;;;;;5154844;27;20039;-61
2023/05/09 05:28:06;;;;;;;22.48;7.28;;;21.40;91.10;;;;;;5154730;27;20454;-61
2023/05/09 05:30:31;;;;;;;19.95;8.25;;;21.40;91.10;;;;;;5156355;27;20039;-61
2023/05/09 05:32:57;;;;;;;19.73;9.15;;;21.50;91.10;;;;;;5139919;27;20038;-61
2023/05/09 05:35:23;;;;;;;15.35;8.90;;;21.30;91.00;;;;;;5144154;27;20055;-61
2023/05/09 05:37:49;;;;;;;14.63;9.10;;;;;;;;;;5154616;27;20480;-61
2023/05/09 05:40:16;;;;;;;15.27;9.63;;;;;;;;;;5151453;27;20049;-62
2023/05/09 05:42:43;;;;;;;12.80;8.38;;;21.40;91.10;;;;;;5154571;27;20073;-61
2023/05/09 05:45:09;;;;;;;17.48;9.02;;;21.40;91.10;;;;;;5154264;27;20425;-61
2023/05/09 05:47:35;;;;;;;12.15;8.93;;;21.30;91.10;;;;;;5147842;27;20043;-61
2023/05/09 05:50:02;;;;;;;16.83;9.40;;;21.40;91.10;;;;;;5134815;27;20055;-66
2023/05/09 05:52:27;;;;;;;14.80;9.65;;;21.50;91.10;;;;;;5128121;27;20072;-66
2023/05/09 05:54:53;;;;;;;15.20;10.00;;;21.30;90.40;;;;;;5154660;27;20038;-66
2023/05/09 05:57:19;;;;;;;13.63;10.27;;;21.20;91.00;;;;;;5147821;27;20551;-61
2023/05/09 05:59:49;;;;;;;12.40;10.20;;;21.20;90.70;;;;;;5153705;27;20045;-61
2023/05/09 06:02:15;;;;;;;13.85;10.70;;;21.50;89.40;;;;;;5151262;27;20496;-66
2023/05/09 06:04:41;;;;;;;16.50;10.02;;;21.50;91.20;;;;;;5152641;27;20478;-66
2023/05/09 06:07:07;;;;;;;13.27;10.32;;;21.20;91.20;;;;;;5154719;27;20103;-66
2023/05/09 06:09:33;;;;;;;17.85;10.88;;;;;;;;;;5151063;27;20039;-64
2023/05/09 06:11:59;;;;;;;14.93;10.50;;;21.30;91.20;;;;;;5149205;27;20051;-66
2023/05/09 06:14:24;;;;;;;13.98;11.02;;;21.20;91.30;;;;;;5153512;27;20035;-66
2023/05/09 06:16:50;;;;;;;14.38;11.00;;;;;;;;;;5152250;27;20043;-65
2023/05/09 06:19:17;;;;;;;15.18;11.25;;;21.20;91.30;;;;;;5153637;27;20042;-66
2023/05/09 06:21:42;;;;;;;14.52;10.70;;;21.00;91.30;;;;;;5153832;27;20042;-66
2023/05/09 06:24:09;;;;;;;14.95;12.15;;;;;;;;;;5133999;27;20070;-66
2023/05/09 06:26:35;;;;;;;15.73;11.65;;;21.00;90.40;;;;;;5153892;27;20082;-66
2023/05/09 06:29:01;;;;;;;18.33;11.60;;;;;;;;;;5151396;27;20152;-65
2023/05/09 06:31:27;;;;;;;14.35;12.13;;;21.10;91.50;;;;;;5134780;27;20098;-66
2023/05/09 06:33:53;;;;;;;16.15;12.15;;;21.00;91.50;;;;;;5132673;27;20134;-66
2023/05/09 06:36:18;;;;;;;14.65;12.10;;;21.10;91.60;;;;;;5135600;27;20042;-66
2023/05/09 06:38:44;;;;;;;14.25;11.63;;;21.20;91.70;;;;;;5152050;27;20043;-65
2023/05/09 06:41:10;;;;;;;14.13;11.32;;;21.00;91.60;;;;;;5151564;27;20035;-60
2023/05/09 06:43:36;;;;;;;16.80;12.50;;;;;;;;;;5145825;27;20052;-62
2023/05/09 06:46:02;;;;;;;14.88;12.27;;;21.00;91.80;;;;;;5143896;27;20448;-65
2023/05/09 06:48:29;;;;;;;17.85;12.98;;;20.90;91.80;;;;;;5152511;27;20050;-66
2023/05/09 06:50:55;;;;;;;16.83;12.27;;;20.90;92.00;;;;;;5152442;27;20054;-61
2023/05/09 06:53:21;;;;;;;16.42;12.32;;;;;;;;;;5153675;27;20038;-60
2023/05/09 06:55:47;;;;;;;15.40;12.50;;;;;;;;;;5153642;27;20046;-65
2023/05/09 06:58:13;;;;;;;14.05;11.80;;;20.80;92.20;;;;;;5110025;27;20046;-65
2023/05/09 07:00:39;;;;;;;14.48;11.23;;;20.80;92.20;;;;;;5133602;27;20046;-65
2023/05/09 07:03:09;;;;;;;15.60;11.48;;;20.90;92.30;;;;;;5153162;27;20422;-61
2023/05/09 07:05:35;;;;;;;13.90;10.88;;;20.80;92.30;;;;;;5153377;27;20377;-66
2023/05/09 07:08:01;;;;;;;13.80;11.60;;;;;;;;;;5153168;27;20035;-65
2023/05/09 07:10:27;;;;;;;14.57;11.63;;;21.10;92.40;;;;;;5152965;27;20049;-66
2023/05/09 07:12:53;;;;;;;14.88;11.95;;;;;;;;;;5152165;27;20047;-66
2023/05/09 07:15:19;;;;;;;17.27;12.75;;;20.90;92.30;;;;;;5152451;27;20046;-67
2023/05/09 07:17:44;;;;;;;14.98;12.13;;;21.10;92.50;;;;;;5152810;27;20039;-66
2023/05/09 07:20:10;;;;;;;14.48;12.38;;;20.60;92.40;;;;;;5153189;27;20056;-65
2023/05/09 07:22:36;;;;;;;15.50;12.95;;;20.70;92.50;;;;;;5134178;27;20414;-62
2023/05/09 07:25:02;;;;;;;16.13;13.02;;;20.90;92.70;;;;;;5139992;27;20481;-65
2023/05/09 07:27:28;;;;;;;18.13;14.20;;;20.80;92.90;;;;;;5133615;27;20049;-66
2023/05/09 07:29:53;;;;;;;15.77;12.77;;;20.40;92.70;;;;;;5132396;27;20047;-65
2023/05/09 07:32:19;;;;;;;15.50;12.65;;;20.10;92.20;;;;;;5121924;27;20043;-63
2023/05/09 07:34:45;;;;;;;15.73;13.40;;;20.40;93.30;;;;;;5122543;27;20050;-66
2023/05/09 07:37:11;;;;;;;15.52;13.50;;;20.30;93.40;;;;;;5144005;27;20035;-61
2023/05/09 07:39:37;;;;;;;17.33;13.52;;;20.30;93.50;;;;;;5151251;27;20049;-65
2023/05/09 07:42:03;;;;;;;18.80;14.50;;;20.40;93.30;;;;;;5138879;27;20078;-66
2023/05/09 07:44:28;;;;;;;18.40;14.75;;;20.00;93.10;;;;;;5135821;27;20135;-66
2023/05/09 07:46:54;;;;;;;18.50;14.27;;;20.20;92.40;;;;;;5156981;27;20424;-65
2023/05/09 07:49:23;;;;;;;16.77;14.30;;;20.10;93.70;;;;;;5126869;27;20043;-61
2023/05/09 07:51:50;;;;;;;16.75;13.75;;;;;;;;;;5156391;27;20094;-66
2023/05/09 07:54:15;;;;;;;17.23;14.25;;;20.00;93.90;;;;;;5134770;27;20057;-65
2023/05/09 07:56:41;;;;;;;18.90;14.65;;;20.30;94.10;;;;;;5138452;27;20046;-66
2023/05/09 07:59:07;;;;;;;17.98;15.30;;;20.20;94.10;;;;;;5147238;27;20143;-62
2023/05/09 08:01:33;;;;;;;17.45;14.05;;;20.20;94.10;;;;;;5145226;27;20084;-66
2023/05/09 08:03:59;;;;;;;17.77;14.30;;;20.40;93.50;;;;;;5150927;27;20038;-65
2023/05/09 08:06:25;;;;;;;17.67;13.70;;;;;;;;;;5155810;27;20437;-68
2023/05/09 08:08:51;;;;;;;15.15;12.63;;;20.40;94.10;;;;;;5155108;27;20035;-67
2023/05/09 08:11:17;;;;;;;16.65;12.73;;;;;;;;;;5155549;27;20047;-68
2023/05/09 08:13:43;;;;;;;16.48;13.05;;;20.50;94.00;;;;;;5155198;27;20073;-68
2023/05/09 08:16:09;;;;;;;16.13;12.52;;;20.30;93.80;;;;;;5155652;27;20115;-67
2023/05/09 08:18:35;;;;;;;21.27;12.68;;;20.60;93.80;;;;;;5155591;27;20057;-61
2023/05/09 08:21:01;;;;;;;15.13;12.32;;;;;;;;;;5150684;27;20051;-61
2023/05/09 08:23:29;;;;;;;14.68;11.80;;;;;;;;;;5141021;27;20038;-62
2023/05/09 08:25:55;;;;;;;15.13;12.07;;;20.80;93.40;;;;;;5135183;27;20046;-64
2023/05/09 08:28:23;;;;;;;16.48;12.48;;;20.70;91.40;;;;;;5148644;27;20476;-66
2023/05/09 08:30:52;;;;;;;16.83;12.75;;;21.10;91.90;;;;;;5155753;27;20096;-65
2023/05/09 08:33:18;;;;;;;15.68;12.40;;;;;;;;;;5153119;27;20042;-64
2023/05/09 08:35:44;;;;;;;14.25;11.23;;;20.80;93.10;;;;;;5156837;27;20395;-65
2023/05/09 08:38:10;;;;;;;14.30;11.25;;;21.00;93.10;;;;;;5154194;27;20086;-65
2023/05/09 08:40:36;;;;;;;15.02;11.52;;;;;;;;;;5154532;27;20074;-60
2023/05/09 08:43:06;;;;;;;14.07;11.98;;;21.00;91.10;;;;;;5151486;27;20042;-65
2023/05/09 08:45:32;;;;;;;14.00;11.07;;;;;;;;;;5152446;27;20046;-65
2023/05/09 08:47:58;;;;;;;14.07;11.25;;;;;;;;;;5135896;27;20060;-65
2023/05/09 08:50:24;;;;;;;14.65;11.50;;;;;;;;;;5154597;27;20046;-66
2023/05/09 08:52:50;;;;;;;15.32;10.95;;;21.20;92.80;;;;;;5152381;27;20050;-66
2023/05/09 08:55:16;;;;;;;14.77;11.30;;;21.10;92.80;;;;;;5137307;27;20449;-63
2023/05/09 08:57:42;;;;;;;15.75;11.75;;;21.20;92.00;;;;;;5126447;27;20038;-65
2023/05/09 09:00:10;;;;;;;17.73;11.52;;;21.00;91.20;;;;;;5101805;27;20502;-65
2023/05/09 09:02:35;;;;;;;16.67;11.98;;;21.20;92.70;;;;;;5137226;27;20034;-61
2023/05/09 09:05:01;;;;;;;15.88;12.18;;;21.20;92.70;;;;;;5131891;27;20908;-61
2023/05/09 09:07:29;;;;;;;15.77;12.15;;;;;;;;;;5150935;27;20054;-62
2023/05/09 09:09:55;;;;;;;16.73;13.27;;;;;;;;;;5134872;27;20066;-64
2023/05/09 09:12:24;;;;;;;18.92;13.98;;;21.50;92.60;;;;;;5133319;27;20492;-63
2023/05/09 09:14:52;;;;;;;17.58;12.35;;;21.50;92.60;;;;;;5138462;27;20046;-60
2023/05/09 09:17:19;;;;;;;18.85;14.18;;;21.30;92.50;;;;;;5116300;27;20364;-68
2023/05/09 09:19:48;;;;;;;20.90;13.80;;;21.40;92.50;;;;;;5115983;27;20038;-65
2023/05/09 09:22:15;;;;;;;18.30;13.68;;;21.30;92.40;;;;;;5148727;27;20047;-61
2023/05/09 09:24:40;;;;;;;21.75;14.80;;;21.20;92.30;;;;;;5085625;28;20048;-66
2023/05/09 09:27:07;;;;;;;20.65;15.20;;;21.60;90.60;;;;;;5112748;28;20477;-62
2023/05/09 09:29:32;;;;;;;21.42;14.50;;;21.50;92.30;;;;;;5110980;28;20067;-61
2023/05/09 09:32:01;;;;;;;19.70;14.48;;;21.60;90.90;;;;;;5105665;28;20079;-65
2023/05/09 09:34:27;;;;;;;20.40;14.63;;;21.60;92.20;;;;;;5086856;28;20146;-61
2023/05/09 09:36:54;;;;;;;21.13;15.88;;;;;;;;;;5089865;28;20036;-64
2023/05/09 09:39:20;;;;;;;22.10;15.88;;;21.60;91.60;;;;;;5091675;28;20117;-65
2023/05/09 09:41:46;;;;;;;25.95;16.38;;;21.70;92.10;;;;;;5107362;28;20145;-62
2023/05/09 09:44:14;;;;;;;21.70;15.43;;;21.60;92.10;;;;;;5090922;28;20123;-68
2023/05/09 09:46:47;;;;;;;24.13;16.73;;;21.60;92.10;;;;;;5106313;28;20093;-65
2023/05/09 09:49:13;;;;;;;;;;;22.00;90.40;;;;;;5085899;28;20040;-66
2023/05/09 09:51:40;;;;;;;21.88;16.30;;;;;;;;;;5100599;28;19923;-67
2023/05/09 09:54:07;;;;;;;23.35;16.40;;;22.00;92.00;;;;;;5108751;28;20047;-65
2023/05/09 09:56:46;;;;;;;24.27;15.95;;;21.80;92.00;;;;;;5104729;28;20043;-65
2023/05/09 09:59:16;;;;;;;23.08;15.90;;;22.00;90.60;;;;;;5110989;28;20382;-64
2023/05/09 10:02:08;;;;;;;21.73;15.88;;;21.70;91.90;;;;;;5108262;28;20045;-63
2023/05/09 10:04:35;;;;;;;22.25;15.88;;;21.80;91.90;;;;;;5086413;28;20051;-64
2023/05/09 10:07:05;;;;;;;22.42;16.48;;;22.10;92.00;;;;;;5103617;28;20048;-62
2023/05/09 10:09:31;;;;;;;24.17;16.60;;;21.80;91.90;;;;;;5105322;28;20525;-64
2023/05/09 10:12:02;;;;;;;24.33;16.63;;;22.00;92.00;;;;;;5092013;28;20122;-63
2023/05/09 10:14:29;;;;;;;25.92;17.55;;;22.10;90.30;;;;;;5092447;28;20094;-62
2023/05/09 10:16:56;;;;;;;25.75;17.25;;;21.90;91.20;;;;;;5079926;28;20052;-62
2023/05/09 10:19:22;;;;;;;25.13;17.75;;;21.90;90.70;;;;;;5083593;28;20063;-63
2023/05/09 10:21:52;;;;;;;26.17;17.70;;;22.00;91.50;;;;;;5067203;28;20048;-61
2023/05/09 10:24:35;;;;;;;24.17;17.20;;;21.90;92.00;;;;;;5092120;28;20079;-61
2023/05/09 10:27:08;;;;;;;24.10;16.88;;;21.80;92.00;;;;;;5087051;28;20055;-62
2023/05/09 10:29:34;;;;;;;;;;;22.00;91.00;;;;;;5076489;28;20126;-62
2023/05/09 10:32:01;;;;;;;27.35;17.65;;;22.00;92.10;;;;;;5091643;28;19927;-61
2023/05/09 10:34:28;;;;;;;25.05;18.02;;;22.10;92.10;;;;;;5063509;28;20039;-62
2023/05/09 10:36:54;;;;;;;26.13;18.00;;;21.70;92.00;;;;;;5092518;28;20039;-62
2023/05/09 10:39:21;;;;;;;25.55;17.52;;;21.80;92.10;;;;;;5084111;28;20401;-62
2023/05/09 10:41:48;;;;;;;26.98;18.52;;;21.60;92.00;;;;;;5074574;28;20044;-62
2023/05/09 10:44:15;;;;;;;26.10;18.52;;;21.70;92.10;;;;;;5073498;28;20044;-65
2023/05/09 10:46:40;;;;;;;27.02;17.77;;;22.00;92.10;;;;;;5099640;28;20043;-61
2023/05/09 10:49:06;;;;;;;26.65;18.50;;;21.70;90.60;;;;;;5086102;28;20047;-62
2023/05/09 10:51:32;;;;;;;26.85;17.70;;;22.00;92.10;;;;;;5082347;28;20188;-61
2023/05/09 10:53:58;;;;;;;27.75;18.30;;;;;;;;;;5077368;28;20119;-64
2023/05/09 10:56:26;;;;;;;25.60;17.45;;;21.90;92.10;;;;;;5092484;28;20048;-64
2023/05/09 10:58:53;;;;;;;29.10;18.58;;;;;;;;;;5071416;28;20056;-61
2023/05/09 11:01:33;;;;;;;24.60;18.00;;;21.80;91.90;;;;;;5105715;28;20044;-62
2023/05/09 11:04:00;;;;;;;27.77;18.23;;;21.90;91.60;;;;;;5097401;28;20044;-66
2023/05/09 11:06:44;;;;;;;26.90;18.50;;;22.10;92.10;;;;;;5060502;28;20078;-62
2023/05/09 11:09:26;;;;;;;27.23;18.05;;;21.90;92.10;;;;;;5109263;28;20047;-62
2023/05/09 11:12:13;;;;;;;28.40;18.03;;;21.90;91.00;;;;;;5110375;28;20054;-65
2023/05/09 11:14:41;;;;;;;33.85;21.35;;;22.00;92.10;;;;;;5064047;28;20306;-66
2023/05/09 11:17:26;;;;;;;29.35;20.23;;;21.90;92.20;;;;;;5068076;28;20056;-62
2023/05/09 11:19:52;;;;;;;31.77;19.63;;;;;;;;;;5099963;28;20417;-65
2023/05/09 11:22:23;;;;;;;28.35;19.70;;;21.90;92.40;;;;;;5095393;28;20040;-62
2023/05/09 11:24:50;;;;;;;27.38;18.80;;;22.00;90.60;;;;;;5108969;28;20519;-65
2023/05/09 11:27:25;;;;;;;31.98;19.77;;;22.00;92.30;;;;;;5091143;28;20055;-62
2023/05/09 11:29:53;;;;;;;30.77;19.38;;;22.00;90.80;;;;;;5107673;28;20393;-64
2023/05/09 11:32:19;;;;;;;30.98;19.60;;;21.80;92.10;;;;;;5081189;28;20045;-62
2023/05/09 11:34:45;;;;;;;29.90;19.88;;;22.10;92.20;;;;;;5103842;28;20469;-63
2023/05/09 11:37:12;;;;;;;30.23;19.60;;;22.00;92.20;;;;;;5094799;28;20046;-65
2023/05/09 11:39:57;;;;;;;28.27;18.80;;;22.10;90.20;;;;;;5092552;28;20485;-64
2023/05/09 11:42:27;;;;;;;30.85;19.92;;;22.20;90.80;;;;;;5075245;28;20052;-63
2023/05/09 11:44:53;;;;;;;29.40;19.00;;;22.00;92.10;;;;;;5093332;28;20032;-66
2023/05/09 11:47:20;;;;;;;31.73;19.92;;;22.00;91.10;;;;;;5113885;28;20097;-63
2023/05/09 11:49:50;;;;;;;31.25;19.75;;;22.10;92.10;;;;;;5103242;28;20044;-62
2023/05/09 11:52:20;;;;;;;31.73;20.63;;;22.20;92.10;;;;;;5110669;28;20052;-62
2023/05/09 11:54:46;;;;;;;33.83;20.38;;;22.10;92.10;;;;;;5096629;28;20138;-62
2023/05/09 11:57:16;;;;;;;29.48;19.80;;;22.20;92.10;;;;;;5103979;28;20130;-62
2023/05/09 11:59:42;;;;;;;33.13;20.20;;;22.30;92.00;;;;;;5091136;28;20073;-62
2023/05/09 12:02:08;;;;;;;33.33;21.00;;;;;;;;;;5097064;28;20086;-61
2023/05/09 12:04:34;;;;;;;36.42;22.15;;;;;;;;;;5113564;28;20087;-63
2023/05/09 12:07:00;;;;;;;32.53;21.27;;;22.40;92.10;;;;;;5083438;28;20081;-63
2023/05/09 12:09:33;;;;;;;31.40;21.63;;;22.40;92.00;;;;;;5066181;28;20040;-66
2023/05/09 12:12:01;;;;;;;34.30;22.52;;;22.40;92.00;;;;;;5087192;28;20446;-63
2023/05/09 12:14:28;;;;;;;35.65;21.25;;;22.50;90.80;;;;;;5097387;28;20485;-62
2023/05/09 12:16:54;;;;;;;34.80;23.48;;;22.20;91.90;;;;;;5113158;28;20111;-63
2023/05/09 12:19:21;;;;;;;32.25;23.05;;;22.60;92.00;;;;;;5115892;28;20039;-64
2023/05/09 12:21:47;;;;;;;33.67;21.50;;;22.50;91.90;;;;;;5108210;28;20043;-61
2023/05/09 12:24:18;;;;;;;30.83;21.15;;;22.60;91.90;;;;;;5099525;28;20420;-65
2023/05/09 12:26:44;;;;;;;33.05;21.67;;;22.40;91.80;;;;;;5094814;28;22191;-62
2023/05/09 12:29:10;;;;;;;37.58;23.83;;;22.50;91.90;;;;;;5094465;28;20059;-61
2023/05/09 12:31:36;;;;;;;35.63;22.70;;;22.70;90.80;;;;;;5075735;28;20044;-62
2023/05/09 12:34:01;;;;;;;35.83;23.02;;;22.50;91.80;;;;;;5113217;28;20051;-62
2023/05/09 12:36:27;;;;;;;34.78;22.35;;;22.60;91.80;;;;;;5076543;28;20504;-62
2023/05/09 12:38:54;;;;;;;34.10;23.10;;;22.60;91.80;;;;;;5111354;28;20052;-62
2023/05/09 12:41:20;;;;;;;32.88;23.50;;;22.70;91.80;;;;;;5076965;28;20389;-64
2023/05/09 12:43:50;;;;;;;37.55;24.00;;;22.70;89.40;;;;;;5098861;28;20059;-65
2023/05/09 12:46:19;;;;;;;32.92;22.67;;;22.70;89.30;;;;;;5105322;28;20082;-66
2023/05/09 12:48:46;;;;;;;44.35;24.98;;;22.30;91.70;;;;;;5113062;28;20062;-62
2023/05/09 12:51:14;;;;;;;35.58;24.80;;;22.60;91.70;;;;;;5092908;28;20516;-66
2023/05/09 12:53:40;;;;;;;35.08;24.13;;;22.40;91.70;;;;;;5091466;28;20408;-62